Surat Thani Airport
VTSB : now visible

Airfield :











YOU CAN JOIN US ON...

 
LOGIN :

Register | Disclaimer

   EN    FR    IT 

 









Legend :    VFR   Marginal VFR   IFR   Intensive IFR   Very Intensive IFR
Visi :
Ceiling :
>= 8 km
>= 3000ft
5 to 8 km
1000 to 3000 ft
1500m to 5 km
500 to 1000 ft
800 to 1500m
200 to 500 ft
< 800m
< 200 ft
Symbols :   Thunderstorms  Fog  Heavy snow  Heavy precipitations  Wind > 20 kt






- Airport Elevation : 20 ft
- IATA code : URT


VTSB - Surat Thani

CURRENT METAR :
  • 211300Z 30004KT 250V330 9999 FEW020 29/24 Q1006 NOSIG

EXPIRED METARs :
  • 211200Z 32006KT 9999 FEW020 29/24 Q1005 NOSIG
  • 211100Z 31004KT 9999 FEW020 30/24 Q1005 NOSIG
  • 211000Z 29009KT 9999 FEW020 31/24 Q1004 NOSIG
  • 210900Z 02009KT 340V040 9999 VCSH FEW018CB SCT020 35/22 Q1004 NOSIG

TAF TAF VTSB
Valid from the 21 at 12:00 until the 22 at 12:00 UTC


211100Z 2112/2212 17004KT 9999 FEW020
BECMG 2206/2208 03008KT
VTBB FIR / Asia



MET'MAP, your aeronautical weather chart ! - Copyright ORBIFLY December 2007 - Disclaimer

ORBIFLY MET'MAP TEAM :

Programming & Development : Alexandra Zaïnal
Original concept : Baudouin d'Aumeries
Technical & hardware support : Manuel Goepfert
Assistance : Marc-Olivier Méhu




SOURCES & CREDITS :

   NOAA       Earth
Advisory